createdAt,value
2019-02-18T00:01:28.527Z,1.77
2019-02-18T00:04:30.952Z,1.50
2019-02-18T00:07:33.573Z,2.03
2019-02-18T00:10:35.851Z,1.70
2019-02-18T00:13:38.195Z,1.80
2019-02-18T00:16:40.578Z,1.70
2019-02-18T00:19:43.082Z,1.80
2019-02-18T00:22:45.463Z,1.67
2019-02-18T00:25:48.778Z,1.73
2019-02-18T00:28:51.076Z,1.80
2019-02-18T00:31:53.367Z,2.37
2019-02-18T00:34:55.673Z,2.03
2019-02-18T00:37:58.008Z,2.30
2019-02-18T00:41:00.289Z,2.67
2019-02-18T00:44:02.644Z,2.73
2019-02-18T00:47:05.106Z,3.07
2019-02-18T00:50:08.050Z,2.90
2019-02-18T00:53:10.335Z,2.90
2019-02-18T00:56:12.646Z,3.27
2019-02-18T00:59:14.972Z,2.60
2019-02-18T01:02:17.375Z,2.87
2019-02-18T01:05:19.644Z,2.97
2019-02-18T01:08:21.939Z,2.97
2019-02-18T01:11:24.411Z,3.00
2019-02-18T01:14:26.741Z,3.50
2019-02-18T01:17:28.998Z,3.37
2019-02-18T01:20:31.331Z,2.83
2019-02-18T01:23:33.603Z,3.13
2019-02-18T01:26:35.983Z,2.70
2019-02-18T01:29:38.262Z,2.53
2019-02-18T01:32:41.111Z,2.90
2019-02-18T01:35:43.435Z,2.80
2019-02-18T01:38:45.699Z,3.20
2019-02-18T01:41:48.029Z,2.67
2019-02-18T01:44:50.383Z,2.60
2019-02-18T01:47:54.392Z,2.20
2019-02-18T01:50:56.721Z,2.50
2019-02-18T01:53:59.051Z,2.83
2019-02-18T01:57:01.367Z,2.40
2019-02-18T02:00:04.077Z,2.67
2019-02-18T02:03:06.425Z,2.37
2019-02-18T02:06:09.276Z,2.60
2019-02-18T02:09:13.365Z,2.50
2019-02-18T02:12:15.635Z,2.50
2019-02-18T02:15:20.911Z,2.80
2019-02-18T02:18:23.335Z,2.77
2019-02-18T02:21:25.676Z,2.30
2019-02-18T02:24:27.933Z,2.47
2019-02-18T02:27:30.240Z,2.43
2019-02-18T02:30:32.487Z,2.43
2019-02-18T02:33:34.785Z,2.80
2019-02-18T02:36:37.099Z,2.47
2019-02-18T02:39:39.974Z,2.30
2019-02-18T02:42:42.270Z,3.03
2019-02-18T02:45:44.618Z,2.60
2019-02-18T02:48:47.686Z,2.20
2019-02-18T02:51:49.962Z,2.70
2019-02-18T02:54:52.463Z,2.23
2019-02-18T02:57:54.880Z,2.30
2019-02-18T03:00:57.220Z,2.43
2019-02-18T03:03:59.708Z,2.30
2019-02-18T03:07:02.043Z,2.83
2019-02-18T03:10:05.426Z,2.50
2019-02-18T03:13:08.907Z,2.20
2019-02-18T03:16:11.183Z,2.73
2019-02-18T03:19:13.569Z,2.30
2019-02-18T03:22:15.886Z,2.10
2019-02-18T03:25:20.724Z,2.60
2019-02-18T03:28:34.806Z,2.47
2019-02-18T03:31:37.047Z,2.87
2019-02-18T03:34:42.865Z,2.37
2019-02-18T03:37:45.227Z,2.30
2019-02-18T03:40:47.597Z,2.40
2019-02-18T03:43:50.588Z,2.17
2019-02-18T03:46:53.015Z,2.23
2019-02-18T03:49:55.285Z,3.20
2019-02-18T03:52:57.572Z,2.17
2019-02-18T03:56:00.203Z,2.30
2019-02-18T03:59:02.873Z,2.37
2019-02-18T04:02:05.274Z,2.00
2019-02-18T04:05:07.668Z,2.30
2019-02-18T04:08:10.485Z,2.30
2019-02-18T04:11:12.842Z,2.60
2019-02-18T04:14:15.823Z,2.50
2019-02-18T04:17:18.124Z,2.83
2019-02-18T04:20:20.423Z,2.43
2019-02-18T04:23:22.752Z,2.80
2019-02-18T04:26:25.071Z,2.80
2019-02-18T04:29:27.371Z,2.70
2019-02-18T04:32:30.064Z,2.63
2019-02-18T04:35:32.850Z,2.30
2019-02-18T04:38:35.210Z,2.57
2019-02-18T04:41:38.170Z,2.10
2019-02-18T04:44:41.931Z,2.37
2019-02-18T04:47:44.301Z,3.00
2019-02-18T04:50:46.576Z,2.50
2019-02-18T04:53:49.600Z,2.20
2019-02-18T04:56:51.850Z,2.30
2019-02-18T04:59:54.663Z,2.57
2019-02-18T05:02:56.956Z,2.63
2019-02-18T05:05:59.313Z,2.50
2019-02-18T05:09:05.288Z,2.30
2019-02-18T05:12:04.179Z,2.73
2019-02-18T05:15:06.504Z,3.50
2019-02-18T05:18:08.807Z,3.83
2019-02-18T05:21:11.062Z,3.10
2019-02-18T05:24:13.467Z,3.33
2019-02-18T05:27:15.792Z,2.90
2019-02-18T05:30:18.143Z,2.90
2019-02-18T05:33:20.426Z,2.70
2019-02-18T05:36:22.788Z,2.40
2019-02-18T05:39:25.045Z,2.50
2019-02-18T05:42:27.330Z,2.20
2019-02-18T05:45:30.477Z,2.47
2019-02-18T05:48:33.987Z,1.93
2019-02-18T05:51:35.785Z,2.03
2019-02-18T05:54:38.156Z,2.50
2019-02-18T05:57:40.442Z,2.57
2019-02-18T06:00:42.740Z,2.60
2019-02-18T06:03:44.991Z,1.97
2019-02-18T06:06:47.273Z,2.17
2019-02-18T06:09:49.559Z,2.70
2019-02-18T06:12:51.868Z,1.97
2019-02-18T06:15:54.241Z,2.13
2019-02-18T06:18:56.510Z,2.47
2019-02-18T06:21:58.787Z,2.60
2019-02-18T06:25:01.113Z,2.20
2019-02-18T06:28:04.930Z,2.70
2019-02-18T06:31:05.733Z,2.90
2019-02-18T06:34:08.029Z,4.30
2019-02-18T06:37:10.827Z,3.93
2019-02-18T06:40:13.278Z,3.03
2019-02-18T06:43:15.903Z,3.13
2019-02-18T06:46:25.550Z,2.77
2019-02-18T06:49:28.671Z,2.47
2019-02-18T06:52:32.645Z,2.60
2019-02-18T06:55:33.212Z,3.47
2019-02-18T06:58:40.819Z,3.60
2019-02-18T07:01:48.627Z,3.43
2019-02-18T07:04:59.823Z,3.40
2019-02-18T07:08:06.764Z,3.03
2019-02-18T07:11:14.707Z,2.53
2019-02-18T07:14:16.990Z,3.27
2019-02-18T07:17:19.358Z,3.30
2019-02-18T07:20:21.660Z,3.10
2019-02-18T07:23:24.159Z,3.03
2019-02-18T07:26:26.752Z,3.30
2019-02-18T07:29:30.531Z,3.30
2019-02-18T07:32:32.832Z,3.50
2019-02-18T07:35:35.335Z,3.73
2019-02-18T07:38:37.668Z,3.17
2019-02-18T07:41:40.607Z,4.27
2019-02-18T07:44:42.890Z,6.50
2019-02-18T07:47:45.255Z,5.63
2019-02-18T07:50:47.566Z,3.53
2019-02-18T07:53:49.833Z,3.10
2019-02-18T07:56:52.846Z,3.17
2019-02-18T07:59:55.169Z,3.17
2019-02-18T08:02:57.827Z,2.63
2019-02-18T08:06:01.277Z,2.90
2019-02-18T08:09:05.071Z,2.90
2019-02-18T08:12:07.413Z,2.57
2019-02-18T08:15:09.779Z,2.53
2019-02-18T08:18:12.023Z,2.43
2019-02-18T08:21:14.319Z,2.57
2019-02-18T08:24:17.287Z,2.30
2019-02-18T08:27:19.811Z,2.57
2019-02-18T08:30:22.140Z,2.27
2019-02-18T08:33:25.283Z,2.60
2019-02-18T08:36:27.595Z,2.30
2019-02-18T08:39:30.868Z,2.30
2019-02-18T08:42:34.224Z,2.63
2019-02-18T08:45:35.851Z,3.23
2019-02-18T08:48:38.279Z,2.50
2019-02-18T08:51:40.630Z,1.80
2019-02-18T08:54:43.256Z,5.87
2019-02-18T08:57:46.410Z,22.33
2019-02-18T09:00:48.985Z,3.00
2019-02-18T09:03:52.261Z,2.20
2019-02-18T09:06:54.674Z,2.43
2019-02-18T09:09:57.708Z,2.40
2019-02-18T09:13:00.104Z,2.13
2019-02-18T09:16:02.477Z,2.17
2019-02-18T09:19:05.035Z,2.63
2019-02-18T09:24:14.024Z,2.60
2019-02-18T09:27:16.334Z,2.70
2019-02-18T09:30:20.443Z,2.63
2019-02-18T09:33:22.851Z,2.67
2019-02-18T09:36:25.171Z,2.90
2019-02-18T09:42:29.791Z,2.97
2019-02-18T09:45:32.909Z,2.63
2019-02-18T09:48:35.263Z,2.50
2019-02-18T09:51:37.571Z,2.60
2019-02-18T09:54:39.919Z,2.33
2019-02-18T09:57:42.269Z,2.03
2019-02-18T10:00:44.626Z,2.00
2019-02-18T10:03:46.959Z,1.97
2019-02-18T10:06:49.269Z,1.70
2019-02-18T10:09:51.832Z,2.53
2019-02-18T10:12:54.310Z,2.20
2019-02-18T10:15:56.604Z,2.90
2019-02-18T10:18:58.951Z,2.53
2019-02-18T10:22:01.368Z,2.00
2019-02-18T10:25:04.014Z,2.00
2019-02-18T10:28:06.314Z,2.37
2019-02-18T10:31:08.657Z,2.10
2019-02-18T10:34:11.030Z,2.10
2019-02-18T10:37:13.332Z,2.20
2019-02-18T10:40:16.316Z,1.90
2019-02-18T10:43:19.710Z,2.03
2019-02-18T10:46:22.059Z,2.10
2019-02-18T10:49:24.473Z,2.07
2019-02-18T10:52:26.986Z,1.83
2019-02-18T10:55:29.304Z,2.07
2019-02-18T10:58:31.847Z,2.10
2019-02-18T11:01:34.203Z,3.37
2019-02-18T11:04:36.523Z,2.77
2019-02-18T11:07:38.929Z,2.80
2019-02-18T11:10:41.297Z,3.10
2019-02-18T11:13:43.649Z,2.47
2019-02-18T11:16:45.957Z,2.20
2019-02-18T11:19:48.260Z,1.97
2019-02-18T11:22:50.669Z,2.50
2019-02-18T11:25:53.283Z,2.97
2019-02-18T11:28:55.683Z,3.10
2019-02-18T11:31:58.002Z,2.87
2019-02-18T11:35:00.717Z,3.20
2019-02-18T11:38:02.864Z,2.60
2019-02-18T11:41:05.192Z,2.57
2019-02-18T11:44:07.514Z,3.10
2019-02-18T11:47:09.912Z,3.13
2019-02-18T11:50:12.281Z,3.25
2019-02-18T11:53:14.562Z,2.80
2019-02-18T11:56:16.887Z,3.60
2019-02-18T11:59:31.586Z,3.80
2019-02-18T12:02:34.281Z,3.50
2019-02-18T12:05:36.644Z,3.40
2019-02-18T12:08:39.593Z,3.80
2019-02-18T12:11:42.265Z,3.93
2019-02-18T12:14:44.588Z,4.10
2019-02-18T12:17:46.888Z,4.30
2019-02-18T12:20:49.168Z,4.27
2019-02-18T12:23:51.569Z,4.13
2019-02-18T12:26:53.855Z,4.23
2019-02-18T12:29:56.163Z,4.70
2019-02-18T12:32:58.465Z,5.43
2019-02-18T12:36:00.812Z,5.30
2019-02-18T12:39:03.848Z,8.97
2019-02-18T12:42:06.153Z,20.43
2019-02-18T12:45:08.596Z,5.30
2019-02-18T12:48:10.950Z,3.90
2019-02-18T12:51:13.301Z,3.17
2019-02-18T12:54:15.605Z,3.47
2019-02-18T12:57:18.057Z,3.60
2019-02-18T13:00:20.497Z,4.73
2019-02-18T13:03:22.920Z,5.00
2019-02-18T13:06:25.276Z,3.27
2019-02-18T13:09:27.649Z,3.67
2019-02-18T13:12:30.168Z,4.17
2019-02-18T13:15:32.556Z,4.00
2019-02-18T13:18:34.851Z,3.40
2019-02-18T13:21:37.169Z,3.50
2019-02-18T13:24:39.528Z,2.87
2019-02-18T13:27:41.843Z,2.60
2019-02-18T13:30:44.254Z,3.93
2019-02-18T13:33:46.549Z,3.37
2019-02-18T13:36:48.892Z,3.10
2019-02-18T13:39:51.199Z,3.13
2019-02-18T13:42:53.531Z,3.50
2019-02-18T13:45:55.848Z,3.67
2019-02-18T13:48:58.206Z,3.40
2019-02-18T13:52:00.560Z,3.17
2019-02-18T13:55:03.392Z,3.10
2019-02-18T13:58:05.819Z,3.83
2019-02-18T14:01:08.160Z,3.07
2019-02-18T14:04:10.485Z,3.00
2019-02-18T14:07:12.863Z,3.10
2019-02-18T14:10:15.180Z,3.13
2019-02-18T14:13:17.607Z,2.73
2019-02-18T14:16:19.925Z,3.30
2019-02-18T14:19:22.260Z,2.73
2019-02-18T14:22:24.596Z,2.70
2019-02-18T14:25:26.895Z,2.40
2019-02-18T14:28:29.906Z,2.40
2019-02-18T14:31:31.646Z,2.70
2019-02-18T14:34:33.956Z,3.13
2019-02-18T14:37:36.300Z,3.13
2019-02-18T14:40:38.680Z,3.40
2019-02-18T14:43:41.045Z,2.80
2019-02-18T14:46:43.352Z,2.80
2019-02-18T14:49:45.674Z,3.60
2019-02-18T14:52:48.046Z,2.97
2019-02-18T14:55:50.347Z,4.03
2019-02-18T14:58:52.670Z,24.13
2019-02-18T15:01:55.031Z,5.20
2019-02-18T15:04:57.355Z,3.87
2019-02-18T15:07:59.670Z,3.83
2019-02-18T15:11:02.110Z,2.73
2019-02-18T15:14:04.481Z,3.00
2019-02-18T15:17:07.370Z,2.97
2019-02-18T15:20:11.442Z,2.70
2019-02-18T15:23:12.040Z,2.50
2019-02-18T15:26:14.379Z,2.47
2019-02-18T15:29:16.715Z,3.03
2019-02-18T15:32:19.071Z,3.60
2019-02-18T15:35:21.468Z,3.53
2019-02-18T15:38:24.005Z,3.43
2019-02-18T15:41:26.413Z,3.70
2019-02-18T15:44:28.783Z,3.90
2019-02-18T15:47:31.130Z,2.97
2019-02-18T15:50:33.529Z,4.00
2019-02-18T15:53:35.841Z,4.30
2019-02-18T15:56:38.242Z,4.40
2019-02-18T15:59:40.564Z,4.33
2019-02-18T16:02:43.005Z,4.60
2019-02-18T16:05:45.691Z,4.10
2019-02-18T16:08:48.160Z,4.03
2019-02-18T16:11:50.542Z,11.13
2019-02-18T16:14:53.444Z,26.80
2019-02-18T16:17:55.734Z,4.73
2019-02-18T16:20:58.190Z,4.73
2019-02-18T16:24:00.629Z,4.17
2019-02-18T16:27:02.987Z,3.63
2019-02-18T16:30:07.010Z,3.57
2019-02-18T16:33:09.664Z,3.70
2019-02-18T16:36:12.070Z,3.80
2019-02-18T16:39:14.459Z,4.30
2019-02-18T16:42:16.913Z,4.00
2019-02-18T16:45:19.234Z,4.03
2019-02-18T16:48:21.548Z,4.07
2019-02-18T16:51:23.828Z,5.27
2019-02-18T16:54:26.208Z,4.33
2019-02-18T16:57:28.513Z,3.90
2019-02-18T17:00:32.417Z,5.77
2019-02-18T17:03:34.737Z,5.10
2019-02-18T17:06:37.257Z,5.77
2019-02-18T17:09:39.715Z,5.40
2019-02-18T17:12:42.145Z,5.30
2019-02-18T17:15:44.932Z,5.50
2019-02-18T17:18:47.307Z,5.13
2019-02-18T17:21:49.865Z,5.57
2019-02-18T17:24:52.168Z,4.60
2019-02-18T17:27:54.587Z,4.70
2019-02-18T17:30:56.930Z,7.13
2019-02-18T17:33:59.238Z,5.63
2019-02-18T17:37:01.650Z,5.80
2019-02-18T17:40:04.230Z,7.23
2019-02-18T17:43:07.428Z,7.03
2019-02-18T17:46:09.718Z,5.20
2019-02-18T17:49:12.659Z,5.67
2019-02-18T17:52:14.990Z,7.97
2019-02-18T17:55:17.279Z,6.17
2019-02-18T17:58:19.792Z,6.50
2019-02-18T18:01:22.133Z,6.13
2019-02-18T18:04:24.541Z,6.63
2019-02-18T18:07:27.431Z,6.40
2019-02-18T18:10:29.998Z,6.77
2019-02-18T18:13:32.519Z,7.30
2019-02-18T18:16:34.922Z,7.87
2019-02-18T18:19:37.208Z,8.53
2019-02-18T18:22:39.925Z,9.33
2019-02-18T18:25:42.335Z,8.37
2019-02-18T18:28:44.796Z,8.63
2019-02-18T18:31:47.113Z,7.70
2019-02-18T18:34:50.325Z,8.20
2019-02-18T18:37:53.453Z,8.70
2019-02-18T18:40:56.998Z,8.47
2019-02-18T18:43:59.344Z,7.83
2019-02-18T18:47:01.699Z,8.57
2019-02-18T18:50:05.344Z,8.90
2019-02-18T18:53:07.718Z,8.50
2019-02-18T18:56:10.068Z,10.13
2019-02-18T18:59:13.158Z,9.17
2019-02-18T19:02:15.731Z,7.63
2019-02-18T19:05:18.170Z,9.17
2019-02-18T19:08:20.476Z,9.13
2019-02-18T19:11:22.865Z,9.40
2019-02-18T19:14:25.241Z,9.10
2019-02-18T19:17:27.585Z,8.13
2019-02-18T19:20:30.787Z,6.83
2019-02-18T19:23:33.820Z,8.10
2019-02-18T19:26:35.720Z,7.33
2019-02-18T19:29:40.028Z,7.30
2019-02-18T19:32:42.362Z,6.97
2019-02-18T19:35:44.940Z,6.87
2019-02-18T19:38:47.324Z,7.40
2019-02-18T19:41:50.385Z,7.70
2019-02-18T19:44:53.333Z,8.03
2019-02-18T19:47:56.359Z,16.17
2019-02-18T19:50:59.695Z,9.67
2019-02-18T19:54:02.840Z,8.27
2019-02-18T19:57:06.332Z,8.60
2019-02-18T20:00:11.938Z,7.70
2019-02-18T20:03:15.080Z,8.07
2019-02-18T20:06:17.449Z,8.10
2019-02-18T20:09:20.304Z,8.17
2019-02-18T20:12:22.773Z,8.17
2019-02-18T20:15:26.001Z,8.40
2019-02-18T20:18:28.554Z,8.20
2019-02-18T20:21:31.419Z,8.37
2019-02-18T20:24:33.762Z,8.53
2019-02-18T20:27:36.397Z,7.73
2019-02-18T20:30:38.727Z,7.97
2019-02-18T20:33:42.655Z,8.03
2019-02-18T20:36:45.161Z,8.67
2019-02-18T20:39:47.624Z,7.23
2019-02-18T20:42:49.914Z,7.63
2019-02-18T20:45:52.907Z,8.17
2019-02-18T20:48:55.269Z,8.77
2019-02-18T20:51:57.592Z,9.40
2019-02-18T20:55:00.016Z,9.93
2019-02-18T20:58:03.879Z,16.23
2019-02-18T21:01:04.697Z,46.17
2019-02-18T21:04:07.743Z,23.73
2019-02-18T21:07:10.169Z,14.27
2019-02-18T21:10:12.684Z,9.37
2019-02-18T21:13:15.383Z,8.07
2019-02-18T21:16:17.756Z,8.10
2019-02-18T21:19:20.172Z,7.77
2019-02-18T21:22:23.456Z,7.43
2019-02-18T21:25:26.174Z,6.67
2019-02-18T21:28:28.530Z,6.57
2019-02-18T21:31:31.472Z,6.40
2019-02-18T21:34:33.897Z,6.83
2019-02-18T21:37:36.167Z,7.27
2019-02-18T21:40:38.549Z,7.80
2019-02-18T21:43:40.908Z,8.87
2019-02-18T21:46:43.309Z,26.17
2019-02-18T21:49:45.920Z,19.90
2019-02-18T21:52:48.239Z,9.87
2019-02-18T21:55:50.569Z,7.23
2019-02-18T21:58:52.942Z,6.13
2019-02-18T22:01:55.340Z,6.07
2019-02-18T22:04:57.665Z,6.27
2019-02-18T22:08:00.425Z,5.40
2019-02-18T22:11:02.874Z,5.40
2019-02-18T22:14:05.242Z,5.03
2019-02-18T22:17:07.547Z,5.20
2019-02-18T22:20:10.159Z,4.00
2019-02-18T22:23:12.463Z,4.70
2019-02-18T22:26:15.403Z,3.60
2019-02-18T22:29:17.802Z,3.80
2019-02-18T22:32:20.132Z,4.07
2019-02-18T22:35:22.453Z,4.13
2019-02-18T22:38:24.796Z,4.00
2019-02-18T22:41:27.714Z,3.73
2019-02-18T22:44:30.026Z,3.83
2019-02-18T22:47:32.355Z,3.70
2019-02-18T22:50:34.674Z,3.60
2019-02-18T22:53:37.772Z,4.37
2019-02-18T22:56:40.763Z,3.67
2019-02-18T22:59:42.312Z,3.20
2019-02-18T23:02:44.658Z,3.27
2019-02-18T23:05:47.373Z,3.77
2019-02-18T23:08:49.643Z,3.40
2019-02-18T23:11:51.882Z,3.67
2019-02-18T23:14:54.206Z,3.83
2019-02-18T23:17:56.492Z,3.47
2019-02-18T23:20:58.806Z,3.60
2019-02-18T23:24:01.186Z,3.20
2019-02-18T23:27:03.936Z,3.33
2019-02-18T23:30:05.905Z,3.60
2019-02-18T23:33:08.332Z,3.60
2019-02-18T23:36:10.679Z,3.57
2019-02-18T23:39:13.655Z,3.43
2019-02-18T23:42:17.656Z,4.23
2019-02-18T23:45:19.971Z,3.50
2019-02-18T23:48:22.351Z,3.67
2019-02-18T23:51:24.652Z,3.27
2019-02-18T23:54:26.943Z,3.23
2019-02-18T23:57:29.231Z,3.50
